createdAt,value
2019-05-17T00:00:29.290Z,8.50
2019-05-17T00:05:34.152Z,8.50
2019-05-17T00:10:41.319Z,8.50
2019-05-17T00:15:47.400Z,8.40
2019-05-17T00:20:51.914Z,8.40
2019-05-17T00:25:56.390Z,8.40
2019-05-17T00:31:03.242Z,8.40
2019-05-17T00:36:11.452Z,8.40
2019-05-17T00:41:17.626Z,8.40
2019-05-17T00:46:22.211Z,8.40
2019-05-17T00:51:27.363Z,8.40
2019-05-17T00:56:32.934Z,8.40
2019-05-17T01:01:39.300Z,8.40
2019-05-17T01:06:50.457Z,8.40
2019-05-17T01:11:56.549Z,8.40
2019-05-17T01:17:16.579Z,8.40
2019-05-17T01:22:09.878Z,8.40
2019-05-17T01:27:14.126Z,8.30
2019-05-17T01:32:21.621Z,8.40
2019-05-17T01:37:27.749Z,8.40
2019-05-17T01:42:37.418Z,8.30
2019-05-17T01:47:43.375Z,8.40
2019-05-17T01:52:48.219Z,8.40
2019-05-17T01:57:56.423Z,8.40
2019-05-17T02:03:03.478Z,8.40
2019-05-17T02:08:08.021Z,8.30
2019-05-17T02:13:11.060Z,8.40
2019-05-17T02:18:21.149Z,8.30
2019-05-17T02:23:27.093Z,8.30
2019-05-17T02:28:32.188Z,8.30
2019-05-17T02:33:36.587Z,8.30
2019-05-17T02:38:43.572Z,8.30
2019-05-17T02:43:53.162Z,8.30
2019-05-17T02:48:54.884Z,8.30
2019-05-17T02:54:13.309Z,8.30
2019-05-17T02:59:18.299Z,8.30
2019-05-17T03:04:23.674Z,8.30
2019-05-17T03:09:29.171Z,8.30
2019-05-17T03:14:33.560Z,8.30
2019-05-17T03:19:37.876Z,8.30
2019-05-17T03:24:44.122Z,8.30
2019-05-17T03:29:48.636Z,8.30
2019-05-17T03:34:56.145Z,8.30
2019-05-17T03:40:23.505Z,8.20
2019-05-17T03:45:13.764Z,8.10
2019-05-17T03:50:22.732Z,8.10
2019-05-17T03:55:33.135Z,8.10
2019-05-17T04:00:38.014Z,8.10
2019-05-17T04:05:43.121Z,8.20
2019-05-17T04:10:47.452Z,8.20
2019-05-17T04:15:53.042Z,8.20
2019-05-17T04:20:57.789Z,8.30
2019-05-17T04:26:04.159Z,8.30
2019-05-17T04:31:08.082Z,8.30
2019-05-17T04:36:13.273Z,8.40
2019-05-17T04:41:38.783Z,8.40
2019-05-17T04:46:25.023Z,8.50
2019-05-17T04:51:32.011Z,8.50
2019-05-17T04:56:36.941Z,8.60
2019-05-17T05:01:43.535Z,8.60
2019-05-17T05:06:52.407Z,8.60
2019-05-17T05:12:02.727Z,8.70
2019-05-17T05:17:03.137Z,8.70
2019-05-17T05:22:07.577Z,8.80
2019-05-17T05:27:16.558Z,8.80
2019-05-17T05:32:22.069Z,8.90
2019-05-17T05:37:28.058Z,8.90
2019-05-17T05:42:32.453Z,9.00
2019-05-17T05:47:36.539Z,9.20
2019-05-17T05:52:42.199Z,9.30
2019-05-17T05:57:47.894Z,9.40
2019-05-17T06:02:53.699Z,9.40
2019-05-17T06:07:59.514Z,9.50
2019-05-17T06:13:05.817Z,9.70
2019-05-17T06:18:12.198Z,9.90
2019-05-17T06:23:17.985Z,10.00
2019-05-17T06:28:22.412Z,10.20
2019-05-17T06:33:30.896Z,10.40
2019-05-17T06:38:37.531Z,10.40
2019-05-17T06:43:45.196Z,10.20
2019-05-17T06:48:49.798Z,10.00
2019-05-17T06:53:56.639Z,10.00
2019-05-17T06:59:04.501Z,9.90
2019-05-17T07:04:10.413Z,9.90
2019-05-17T07:09:15.651Z,9.90
2019-05-17T07:14:21.724Z,10.00
2019-05-17T07:19:25.844Z,10.10
2019-05-17T07:24:44.334Z,10.20
2019-05-17T07:29:49.767Z,10.20
2019-05-17T07:34:54.165Z,10.30
2019-05-17T07:40:04.508Z,10.30
2019-05-17T07:45:05.567Z,10.40
2019-05-17T07:50:11.169Z,10.50
2019-05-17T07:55:16.255Z,10.50
2019-05-17T08:00:20.485Z,10.50
2019-05-17T08:05:24.884Z,10.50
2019-05-17T08:10:31.391Z,10.60
2019-05-17T08:15:35.586Z,10.60
2019-05-17T08:20:40.552Z,10.70
2019-05-17T08:25:52.610Z,10.80
2019-05-17T08:30:54.964Z,10.90
2019-05-17T08:35:59.815Z,11.20
2019-05-17T08:41:07.393Z,11.30
2019-05-17T08:46:12.752Z,11.20
2019-05-17T08:51:24.272Z,11.00
2019-05-17T08:56:31.578Z,11.00
2019-05-17T09:01:38.546Z,11.10
2019-05-17T09:06:44.066Z,11.20
2019-05-17T09:11:50.083Z,11.40
2019-05-17T09:16:56.129Z,11.40
2019-05-17T09:22:02.298Z,11.40
2019-05-17T09:27:10.149Z,11.30
2019-05-17T09:32:14.764Z,11.20
2019-05-17T09:37:22.216Z,11.30
2019-05-17T09:42:24.747Z,11.40
2019-05-17T09:47:30.083Z,11.50
2019-05-17T09:52:34.494Z,11.50
2019-05-17T09:57:41.176Z,11.60
2019-05-17T10:02:46.482Z,11.60
2019-05-17T10:07:51.070Z,11.60
2019-05-17T10:12:55.434Z,11.80
2019-05-17T10:18:00.989Z,12.00
2019-05-17T10:23:05.360Z,12.30
2019-05-17T10:28:10.135Z,12.20
2019-05-17T10:33:14.546Z,12.20
2019-05-17T10:38:19.479Z,12.20
2019-05-17T10:43:25.279Z,12.30
2019-05-17T10:48:30.284Z,12.30
2019-05-17T10:53:37.058Z,12.30
2019-05-17T10:58:42.702Z,12.70
2019-05-17T11:03:50.107Z,13.70
2019-05-17T11:08:53.611Z,15.10
2019-05-17T11:13:59.176Z,16.10
2019-05-17T11:19:03.602Z,16.20
2019-05-17T11:24:18.082Z,15.50
2019-05-17T11:29:21.234Z,16.20
2019-05-17T11:34:25.736Z,16.30
2019-05-17T11:39:29.017Z,15.80
2019-05-17T11:44:33.137Z,16.50
2019-05-17T11:49:38.439Z,16.80
2019-05-17T11:54:43.216Z,17.30
2019-05-17T11:59:47.904Z,17.20
2019-05-17T12:04:52.277Z,17.20
2019-05-17T12:09:56.303Z,16.70
2019-05-17T12:15:00.406Z,16.30
2019-05-17T12:20:05.140Z,16.10
2019-05-17T12:25:11.307Z,16.10
2019-05-17T12:30:15.699Z,16.10
2019-05-17T12:35:26.349Z,16.40
2019-05-17T12:40:31.492Z,16.40
2019-05-17T12:45:35.897Z,16.60
2019-05-17T12:50:41.043Z,16.50
2019-05-17T12:55:45.098Z,16.60
2019-05-17T13:00:49.556Z,16.50
2019-05-17T13:05:53.640Z,16.20
2019-05-17T13:11:00.634Z,16.50
2019-05-17T13:16:17.604Z,16.50
2019-05-17T13:21:10.482Z,16.70
2019-05-17T13:26:14.477Z,16.60
2019-05-17T13:31:18.683Z,16.80
2019-05-17T13:36:22.800Z,17.00
2019-05-17T13:41:26.957Z,16.90
2019-05-17T13:46:33.555Z,16.90
2019-05-17T13:51:37.102Z,17.00
2019-05-17T13:56:41.175Z,16.60
2019-05-17T14:01:45.296Z,16.60
2019-05-17T14:06:51.487Z,16.30
2019-05-17T14:11:56.279Z,16.30
2019-05-17T14:17:00.471Z,16.30
2019-05-17T14:22:10.587Z,16.30
2019-05-17T14:27:15.595Z,16.30
2019-05-17T14:32:22.370Z,16.20
2019-05-17T14:37:29.593Z,16.20
2019-05-17T14:42:39.777Z,16.20
2019-05-17T14:47:54.661Z,16.40
2019-05-17T14:53:00.025Z,16.60
2019-05-17T14:58:07.319Z,16.60
2019-05-17T15:03:17.576Z,16.60
2019-05-17T15:08:22.349Z,16.50
2019-05-17T15:13:29.731Z,16.60
2019-05-17T15:18:39.951Z,16.70
2019-05-17T15:24:12.831Z,16.80
2019-05-17T15:30:06.121Z,16.70
2019-05-17T15:35:20.230Z,16.70
2019-05-17T15:40:33.472Z,16.70
2019-05-17T15:45:49.855Z,16.70
2019-05-17T15:50:54.066Z,16.70
2019-05-17T15:56:04.978Z,16.70
2019-05-17T16:01:09.578Z,16.60
2019-05-17T16:06:23.719Z,16.30
2019-05-17T16:11:28.896Z,16.00
2019-05-17T16:16:36.707Z,15.90
2019-05-17T16:21:57.781Z,15.90
2019-05-17T16:33:43.267Z,15.80
2019-05-17T16:38:47.601Z,15.80
2019-05-17T16:44:18.737Z,15.80
2019-05-17T16:49:28.315Z,15.80
2019-05-17T16:54:33.767Z,15.70
2019-05-17T16:59:40.196Z,15.60
2019-05-17T17:04:51.624Z,15.50
2019-05-17T17:10:00.750Z,15.40
2019-05-17T17:15:38.397Z,15.40
2019-05-17T17:20:47.861Z,15.40
2019-05-17T17:25:53.845Z,15.30
2019-05-17T17:31:17.803Z,15.30
2019-05-17T17:36:59.327Z,15.20
2019-05-17T17:48:53.755Z,15.10
2019-05-17T17:54:28.689Z,15.00
2019-05-17T17:59:37.101Z,14.90
2019-05-17T18:05:10.762Z,14.80
2019-05-17T18:10:27.793Z,14.80
2019-05-17T18:22:13.397Z,14.50
2019-05-17T18:27:19.329Z,14.40
2019-05-17T18:32:32.871Z,14.40
2019-05-17T18:38:00.553Z,14.30
2019-05-17T18:43:12.083Z,14.30
2019-05-17T18:48:33.406Z,14.10
2019-05-17T18:53:43.807Z,14.00
2019-05-17T18:58:48.408Z,13.80
2019-05-17T19:03:52.720Z,13.60
2019-05-17T19:08:57.395Z,13.50
2019-05-17T19:14:00.656Z,13.30
2019-05-17T19:19:05.094Z,13.20
2019-05-17T19:24:09.487Z,13.20
2019-05-17T19:29:20.262Z,13.20
2019-05-17T19:34:29.067Z,13.30
2019-05-17T19:39:33.512Z,13.20
2019-05-17T19:44:37.579Z,13.20
2019-05-17T19:49:41.727Z,13.20
2019-05-17T19:54:45.926Z,13.20
2019-05-17T19:59:49.970Z,13.20
2019-05-17T20:04:54.682Z,13.20
2019-05-17T20:09:57.814Z,13.10
2019-05-17T20:15:15.923Z,13.10
2019-05-17T20:20:08.937Z,13.00
2019-05-17T20:25:13.452Z,12.90
2019-05-17T20:30:17.619Z,12.90
2019-05-17T20:35:21.997Z,12.90
2019-05-17T20:40:26.077Z,12.90
2019-05-17T20:45:33.767Z,12.90
2019-05-17T20:50:37.838Z,12.90
2019-05-17T20:55:43.295Z,12.90
2019-05-17T21:00:58.816Z,12.90
2019-05-17T21:06:03.165Z,12.90
2019-05-17T21:11:08.148Z,12.80
2019-05-17T21:16:12.239Z,12.80
2019-05-17T21:21:16.277Z,12.70
2019-05-17T21:26:21.020Z,12.70
2019-05-17T21:31:25.572Z,12.60
2019-05-17T21:36:29.558Z,12.60
2019-05-17T21:41:33.658Z,12.50
2019-05-17T21:46:37.675Z,12.50
2019-05-17T21:51:41.750Z,12.40
2019-05-17T21:56:46.055Z,12.30
2019-05-17T22:01:54.337Z,12.20
2019-05-17T22:06:58.479Z,12.10
2019-05-17T22:12:21.839Z,12.00
2019-05-17T22:17:25.956Z,11.90
2019-05-17T22:22:30.346Z,11.60
2019-05-17T22:27:35.522Z,11.40
2019-05-17T22:32:40.555Z,11.10
2019-05-17T22:37:44.610Z,10.80
2019-05-17T22:42:57.426Z,10.50
2019-05-17T22:48:10.484Z,10.30
2019-05-17T22:53:14.579Z,10.10
2019-05-17T22:58:19.299Z,9.90
2019-05-17T23:03:22.916Z,9.70
2019-05-17T23:08:26.940Z,9.50
2019-05-17T23:13:32.384Z,9.30
2019-05-17T23:18:36.788Z,9.20
2019-05-17T23:23:41.215Z,9.00
2019-05-17T23:28:45.340Z,8.90
2019-05-17T23:33:49.615Z,8.70
2019-05-17T23:38:53.764Z,8.60
2019-05-17T23:44:00.745Z,8.40
2019-05-17T23:49:05.328Z,8.30
2019-05-17T23:54:08.458Z,8.10
2019-05-17T23:59:13.679Z,8.10
